Terminal Aerodrome Forecast
Issued by NWS La Crosse, WI

Home | Current Version | Previous Version | Text Only | Print | Product List | Glossary On
Versions: 1 2 3 4 5 6 7 8 9 10 11 12 13 14 15 16 17 18 19 20 21 22 23 24 25 26 27 28 29 30 31 32 33 34
000
FTUS43 KARX 270520
TAFRST
TAF
KRST 270520Z 2706/2806 22006KT P6SM SKC
     FM271000 20004KT P6SM SCT090
     FM271800 23006KT P6SM FEW030 SCT100
     FM280000 VRB04KT P6SM VCTS SCT030CB=

USA.gov is the U.S. government's official web portal to all federal, state and local government web resources and services.